Frankfort, Ohio
Current Conditions -  °F | °C
As of 7:14 PM on Friday 19 Dec 2014 (Local Time) from KRZT Reporting Station
Overcast Overcast  
Wind Chill: 30°   Ceiling: 2300
Heat Index: 30°   Visibility: 10mi
Dew Point: 23°   Wind: 0mph
Humidity: 75%   Direction: NA
Pressure: 30.3"   Gusts: NA
Location:  39.4°N, 83.18°W
Report Text: KRZT 200014Z AUTO 00000KT 10SM OVC023 M01/M05 A3030 RMK AO2
Loading
Personal Weather Stations






























Interactive Weather Map New forecast layout! Learn more

10-Day Weather Forecast

Advertisements
Track Severe Weather on mobile